sensor_id;sensor_type;location;lat;lon;timestamp;P1;durP1;ratioP1;P2;durP2;ratioP2
72590;SDS011;60625;51.212;5.952;2023-02-15T00:02:00;28.50;;;14.00;;
72590;SDS011;60625;51.212;5.952;2023-02-15T00:07:01;26.30;;;13.10;;
72590;SDS011;60625;51.212;5.952;2023-02-15T00:12:02;26.40;;;13.60;;
72590;SDS011;60625;51.212;5.952;2023-02-15T00:17:03;28.90;;;15.10;;
72590;SDS011;60625;51.212;5.952;2023-02-15T00:22:04;27.10;;;13.20;;
72590;SDS011;60625;51.212;5.952;2023-02-15T00:27:04;29.70;;;13.90;;
72590;SDS011;60625;51.212;5.952;2023-02-15T00:32:05;30.40;;;13.30;;
72590;SDS011;60625;51.212;5.952;2023-02-15T00:37:06;26.10;;;12.60;;
72590;SDS011;60625;51.212;5.952;2023-02-15T00:42:07;25.70;;;13.30;;
72590;SDS011;60625;51.212;5.952;2023-02-15T00:47:07;31.00;;;14.60;;
72590;SDS011;60625;51.212;5.952;2023-02-15T00:52:08;26.60;;;13.50;;
72590;SDS011;60625;51.212;5.952;2023-02-15T00:57:09;29.20;;;14.10;;
72590;SDS011;60625;51.212;5.952;2023-02-15T01:02:10;25.20;;;12.10;;
72590;SDS011;60625;51.212;5.952;2023-02-15T01:07:10;28.90;;;14.20;;
72590;SDS011;60625;51.212;5.952;2023-02-15T01:12:11;29.30;;;12.60;;
72590;SDS011;60625;51.212;5.952;2023-02-15T01:17:11;29.50;;;14.40;;
72590;SDS011;60625;51.212;5.952;2023-02-15T01:22:11;29.60;;;13.90;;
72590;SDS011;60625;51.212;5.952;2023-02-15T01:27:12;24.10;;;12.90;;
72590;SDS011;60625;51.212;5.952;2023-02-15T01:32:12;29.30;;;14.80;;
72590;SDS011;60625;51.212;5.952;2023-02-15T01:37:16;30.30;;;14.50;;
72590;SDS011;60625;51.212;5.952;2023-02-15T01:42:24;24.00;;;11.90;;
72590;SDS011;60625;51.212;5.952;2023-02-15T01:48:03;32.10;;;15.20;;
72590;SDS011;60625;51.212;5.952;2023-02-15T01:53:32;29.30;;;13.30;;
72590;SDS011;60625;51.212;5.952;2023-02-15T01:58:37;26.80;;;13.80;;
72590;SDS011;60625;51.212;5.952;2023-02-15T02:09:30;22.60;;;12.00;;
72590;SDS011;60625;51.212;5.952;2023-02-15T02:14:31;24.30;;;12.30;;
72590;SDS011;60625;51.212;5.952;2023-02-15T02:47:51;26.40;;;12.40;;
72590;SDS011;60625;51.212;5.952;2023-02-15T02:52:58;32.10;;;12.60;;
72590;SDS011;60625;51.212;5.952;2023-02-15T03:03:27;26.30;;;12.00;;
72590;SDS011;60625;51.212;5.952;2023-02-15T03:08:38;30.70;;;13.40;;
72590;SDS011;60625;51.212;5.952;2023-02-15T03:13:44;28.40;;;13.50;;
72590;SDS011;60625;51.212;5.952;2023-02-15T03:18:51;31.50;;;14.40;;
72590;SDS011;60625;51.212;5.952;2023-02-15T03:24:07;31.40;;;13.50;;
72590;SDS011;60625;51.212;5.952;2023-02-15T03:29:11;29.20;;;13.80;;
72590;SDS011;60625;51.212;5.952;2023-02-15T03:34:13;31.20;;;14.40;;
72590;SDS011;60625;51.212;5.952;2023-02-15T03:44:36;32.20;;;14.50;;
72590;SDS011;60625;51.212;5.952;2023-02-15T03:49:45;29.80;;;14.90;;
72590;SDS011;60625;51.212;5.952;2023-02-15T03:54:55;34.40;;;15.10;;
72590;SDS011;60625;51.212;5.952;2023-02-15T03:59:59;33.30;;;14.00;;
72590;SDS011;60625;51.212;5.952;2023-02-15T04:05:19;34.20;;;15.80;;
72590;SDS011;60625;51.212;5.952;2023-02-15T04:10:19;34.90;;;15.10;;
72590;SDS011;60625;51.212;5.952;2023-02-15T04:15:39;33.40;;;14.90;;
72590;SDS011;60625;51.212;5.952;2023-02-15T04:20:58;31.30;;;14.30;;
72590;SDS011;60625;51.212;5.952;2023-02-15T04:26:17;39.20;;;15.50;;
72590;SDS011;60625;51.212;5.952;2023-02-15T04:31:18;35.00;;;15.00;;
72590;SDS011;60625;51.212;5.952;2023-02-15T04:36:18;37.20;;;16.70;;
72590;SDS011;60625;51.212;5.952;2023-02-15T04:41:19;32.30;;;15.30;;
72590;SDS011;60625;51.212;5.952;2023-02-15T04:46:19;34.90;;;15.70;;
72590;SDS011;60625;51.212;5.952;2023-02-15T04:51:20;33.40;;;15.50;;
72590;SDS011;60625;51.212;5.952;2023-02-15T04:56:21;36.10;;;14.00;;
72590;SDS011;60625;51.212;5.952;2023-02-15T05:01:22;35.50;;;15.90;;
72590;SDS011;60625;51.212;5.952;2023-02-15T05:06:22;34.40;;;15.00;;
72590;SDS011;60625;51.212;5.952;2023-02-15T05:11:23;35.40;;;15.20;;
72590;SDS011;60625;51.212;5.952;2023-02-15T05:16:24;39.30;;;17.30;;
72590;SDS011;60625;51.212;5.952;2023-02-15T05:21:25;35.60;;;15.80;;
72590;SDS011;60625;51.212;5.952;2023-02-15T05:26:26;40.60;;;18.10;;
72590;SDS011;60625;51.212;5.952;2023-02-15T05:31:45;38.60;;;16.30;;
72590;SDS011;60625;51.212;5.952;2023-02-15T05:36:47;37.00;;;16.40;;
72590;SDS011;60625;51.212;5.952;2023-02-15T05:41:47;37.80;;;15.90;;
72590;SDS011;60625;51.212;5.952;2023-02-15T05:46:48;39.70;;;17.90;;
72590;SDS011;60625;51.212;5.952;2023-02-15T05:51:49;46.30;;;17.70;;
72590;SDS011;60625;51.212;5.952;2023-02-15T05:56:49;43.90;;;18.20;;
72590;SDS011;60625;51.212;5.952;2023-02-15T06:01:50;42.00;;;18.70;;
72590;SDS011;60625;51.212;5.952;2023-02-15T06:06:50;41.50;;;17.50;;
72590;SDS011;60625;51.212;5.952;2023-02-15T06:11:51;45.30;;;18.20;;
72590;SDS011;60625;51.212;5.952;2023-02-15T06:16:52;44.10;;;18.00;;
72590;SDS011;60625;51.212;5.952;2023-02-15T06:21:52;47.20;;;17.80;;
72590;SDS011;60625;51.212;5.952;2023-02-15T06:26:53;39.20;;;17.30;;
72590;SDS011;60625;51.212;5.952;2023-02-15T06:31:53;47.50;;;18.40;;
72590;SDS011;60625;51.212;5.952;2023-02-15T06:36:53;38.40;;;16.20;;
72590;SDS011;60625;51.212;5.952;2023-02-15T06:41:54;39.00;;;17.80;;
72590;SDS011;60625;51.212;5.952;2023-02-15T06:46:55;38.10;;;15.90;;
72590;SDS011;60625;51.212;5.952;2023-02-15T06:51:55;37.90;;;16.20;;
72590;SDS011;60625;51.212;5.952;2023-02-15T06:56:56;42.70;;;17.40;;
72590;SDS011;60625;51.212;5.952;2023-02-15T07:01:56;40.50;;;17.00;;
72590;SDS011;60625;51.212;5.952;2023-02-15T07:06:57;44.20;;;18.90;;
72590;SDS011;60625;51.212;5.952;2023-02-15T07:11:57;41.00;;;17.60;;
72590;SDS011;60625;51.212;5.952;2023-02-15T07:17:17;40.80;;;17.90;;
72590;SDS011;60625;51.212;5.952;2023-02-15T07:22:18;47.00;;;19.10;;
72590;SDS011;60625;51.212;5.952;2023-02-15T07:27:18;43.00;;;18.40;;
72590;SDS011;60625;51.212;5.952;2023-02-15T07:32:18;44.30;;;17.90;;
72590;SDS011;60625;51.212;5.952;2023-02-15T07:37:19;40.40;;;18.60;;
72590;SDS011;60625;51.212;5.952;2023-02-15T07:42:19;45.30;;;19.30;;
72590;SDS011;60625;51.212;5.952;2023-02-15T07:47:21;46.30;;;18.90;;
72590;SDS011;60625;51.212;5.952;2023-02-15T07:52:22;42.50;;;18.90;;
72590;SDS011;60625;51.212;5.952;2023-02-15T07:57:23;37.30;;;15.60;;
72590;SDS011;60625;51.212;5.952;2023-02-15T08:02:23;45.10;;;19.70;;
72590;SDS011;60625;51.212;5.952;2023-02-15T08:07:24;43.50;;;19.00;;
72590;SDS011;60625;51.212;5.952;2023-02-15T08:12:26;40.80;;;17.70;;
72590;SDS011;60625;51.212;5.952;2023-02-15T08:17:27;39.20;;;17.90;;
72590;SDS011;60625;51.212;5.952;2023-02-15T08:22:27;37.20;;;16.60;;
72590;SDS011;60625;51.212;5.952;2023-02-15T08:27:29;51.70;;;20.20;;
72590;SDS011;60625;51.212;5.952;2023-02-15T08:32:29;54.50;;;21.20;;
72590;SDS011;60625;51.212;5.952;2023-02-15T08:37:30;44.00;;;20.30;;
72590;SDS011;60625;51.212;5.952;2023-02-15T08:42:32;51.60;;;21.40;;
72590;SDS011;60625;51.212;5.952;2023-02-15T08:47:34;42.80;;;20.00;;
72590;SDS011;60625;51.212;5.952;2023-02-15T08:52:34;42.80;;;19.90;;
72590;SDS011;60625;51.212;5.952;2023-02-15T08:57:35;45.00;;;19.10;;
72590;SDS011;60625;51.212;5.952;2023-02-15T09:02:35;40.40;;;19.00;;
72590;SDS011;60625;51.212;5.952;2023-02-15T09:07:37;40.50;;;18.80;;
72590;SDS011;60625;51.212;5.952;2023-02-15T09:12:37;39.00;;;19.50;;
72590;SDS011;60625;51.212;5.952;2023-02-15T09:17:38;37.30;;;17.60;;
72590;SDS011;60625;51.212;5.952;2023-02-15T09:22:38;36.30;;;16.50;;
72590;SDS011;60625;51.212;5.952;2023-02-15T09:27:39;37.30;;;17.80;;
72590;SDS011;60625;51.212;5.952;2023-02-15T09:32:39;35.80;;;15.80;;
72590;SDS011;60625;51.212;5.952;2023-02-15T09:37:40;37.90;;;17.30;;
72590;SDS011;60625;51.212;5.952;2023-02-15T09:43:15;36.80;;;17.20;;
72590;SDS011;60625;51.212;5.952;2023-02-15T09:48:37;31.70;;;16.30;;
72590;SDS011;60625;51.212;5.952;2023-02-15T09:59:26;40.90;;;17.00;;
72590;SDS011;60625;51.212;5.952;2023-02-15T10:16:19;32.40;;;15.50;;
72590;SDS011;60625;51.212;5.952;2023-02-15T10:27:16;30.50;;;15.80;;
72590;SDS011;60625;51.212;5.952;2023-02-15T10:32:25;33.80;;;16.70;;
72590;SDS011;60625;51.212;5.952;2023-02-15T10:43:26;33.80;;;15.80;;
72590;SDS011;60625;51.212;5.952;2023-02-15T11:00:00;28.90;;;14.80;;
72590;SDS011;60625;51.212;5.952;2023-02-15T11:05:35;29.60;;;15.80;;
72590;SDS011;60625;51.212;5.952;2023-02-15T11:10:59;28.40;;;15.70;;
72590;SDS011;60625;51.212;5.952;2023-02-15T11:16:17;27.60;;;14.30;;
72590;SDS011;60625;51.212;5.952;2023-02-15T11:21:31;29.30;;;15.40;;
72590;SDS011;60625;51.212;5.952;2023-02-15T11:26:46;29.00;;;14.20;;
72590;SDS011;60625;51.212;5.952;2023-02-15T11:31:53;28.30;;;16.00;;
72590;SDS011;60625;51.212;5.952;2023-02-15T11:36:59;27.40;;;14.70;;
72590;SDS011;60625;51.212;5.952;2023-02-15T11:42:07;28.90;;;14.00;;
72590;SDS011;60625;51.212;5.952;2023-02-15T11:47:13;29.60;;;14.50;;
72590;SDS011;60625;51.212;5.952;2023-02-15T11:52:16;23.40;;;14.00;;
72590;SDS011;60625;51.212;5.952;2023-02-15T11:57:33;28.90;;;14.60;;
72590;SDS011;60625;51.212;5.952;2023-02-15T12:02:38;26.90;;;14.30;;
72590;SDS011;60625;51.212;5.952;2023-02-15T12:08:01;24.30;;;14.00;;
72590;SDS011;60625;51.212;5.952;2023-02-15T12:13:15;30.60;;;14.00;;
72590;SDS011;60625;51.212;5.952;2023-02-15T12:18:37;27.90;;;14.00;;
72590;SDS011;60625;51.212;5.952;2023-02-15T12:23:46;28.70;;;13.10;;
72590;SDS011;60625;51.212;5.952;2023-02-15T12:28:49;24.80;;;13.80;;
72590;SDS011;60625;51.212;5.952;2023-02-15T12:33:54;27.90;;;12.80;;
72590;SDS011;60625;51.212;5.952;2023-02-15T12:44:21;26.10;;;13.00;;
72590;SDS011;60625;51.212;5.952;2023-02-15T12:49:31;28.00;;;14.60;;
72590;SDS011;60625;51.212;5.952;2023-02-15T12:54:41;27.10;;;14.40;;
72590;SDS011;60625;51.212;5.952;2023-02-15T13:00:00;23.10;;;12.70;;
72590;SDS011;60625;51.212;5.952;2023-02-15T13:05:39;27.20;;;13.40;;
72590;SDS011;60625;51.212;5.952;2023-02-15T13:16:01;30.30;;;13.50;;
72590;SDS011;60625;51.212;5.952;2023-02-15T13:21:20;24.50;;;12.80;;
72590;SDS011;60625;51.212;5.952;2023-02-15T13:26:26;30.50;;;13.40;;
72590;SDS011;60625;51.212;5.952;2023-02-15T13:31:29;31.70;;;12.50;;
72590;SDS011;60625;51.212;5.952;2023-02-15T14:04:41;24.10;;;11.30;;
72590;SDS011;60625;51.212;5.952;2023-02-15T14:10:00;29.20;;;10.80;;
72590;SDS011;60625;51.212;5.952;2023-02-15T14:15:48;26.40;;;11.10;;
72590;SDS011;60625;51.212;5.952;2023-02-15T14:26:06;25.90;;;11.20;;
72590;SDS011;60625;51.212;5.952;2023-02-15T14:31:13;26.60;;;12.00;;
72590;SDS011;60625;51.212;5.952;2023-02-15T14:36:18;27.70;;;12.20;;
72590;SDS011;60625;51.212;5.952;2023-02-15T14:41:49;25.80;;;11.80;;
72590;SDS011;60625;51.212;5.952;2023-02-15T14:47:11;30.70;;;12.20;;
72590;SDS011;60625;51.212;5.952;2023-02-15T14:52:19;24.50;;;12.00;;
72590;SDS011;60625;51.212;5.952;2023-02-15T14:57:20;27.90;;;12.20;;
72590;SDS011;60625;51.212;5.952;2023-02-15T15:07:37;25.30;;;11.20;;
72590;SDS011;60625;51.212;5.952;2023-02-15T15:12:54;24.10;;;12.00;;
72590;SDS011;60625;51.212;5.952;2023-02-15T15:18:07;25.40;;;12.40;;
72590;SDS011;60625;51.212;5.952;2023-02-15T15:33:42;29.90;;;12.90;;
72590;SDS011;60625;51.212;5.952;2023-02-15T15:44:56;29.10;;;14.10;;
72590;SDS011;60625;51.212;5.952;2023-02-15T15:50:12;25.90;;;12.00;;
72590;SDS011;60625;51.212;5.952;2023-02-15T15:55:20;25.30;;;11.50;;
72590;SDS011;60625;51.212;5.952;2023-02-15T16:05:38;25.70;;;12.10;;
72590;SDS011;60625;51.212;5.952;2023-02-15T16:10:40;26.20;;;12.20;;
72590;SDS011;60625;51.212;5.952;2023-02-15T16:15:46;34.70;;;13.50;;
72590;SDS011;60625;51.212;5.952;2023-02-15T16:20:57;27.40;;;13.00;;
72590;SDS011;60625;51.212;5.952;2023-02-15T16:31:22;29.70;;;12.70;;
72590;SDS011;60625;51.212;5.952;2023-02-15T16:36:26;28.80;;;12.90;;
72590;SDS011;60625;51.212;5.952;2023-02-15T16:41:29;31.00;;;14.10;;
72590;SDS011;60625;51.212;5.952;2023-02-15T16:46:37;34.70;;;15.20;;
72590;SDS011;60625;51.212;5.952;2023-02-15T16:51:43;30.80;;;14.30;;
72590;SDS011;60625;51.212;5.952;2023-02-15T16:56:45;32.40;;;14.00;;
72590;SDS011;60625;51.212;5.952;2023-02-15T17:01:47;31.50;;;13.30;;
72590;SDS011;60625;51.212;5.952;2023-02-15T17:07:02;29.20;;;14.30;;
72590;SDS011;60625;51.212;5.952;2023-02-15T17:12:08;32.20;;;14.70;;
72590;SDS011;60625;51.212;5.952;2023-02-15T17:17:14;32.30;;;16.30;;
72590;SDS011;60625;51.212;5.952;2023-02-15T17:22:23;32.10;;;15.30;;
72590;SDS011;60625;51.212;5.952;2023-02-15T17:27:28;29.90;;;14.80;;
72590;SDS011;60625;51.212;5.952;2023-02-15T17:32:32;33.60;;;15.80;;
72590;SDS011;60625;51.212;5.952;2023-02-15T17:42:37;36.10;;;17.30;;
72590;SDS011;60625;51.212;5.952;2023-02-15T17:47:37;35.80;;;18.30;;
72590;SDS011;60625;51.212;5.952;2023-02-15T17:52:38;31.90;;;15.90;;
72590;SDS011;60625;51.212;5.952;2023-02-15T17:57:38;34.50;;;17.00;;
72590;SDS011;60625;51.212;5.952;2023-02-15T18:02:39;40.50;;;18.30;;
72590;SDS011;60625;51.212;5.952;2023-02-15T18:07:58;33.10;;;16.40;;
72590;SDS011;60625;51.212;5.952;2023-02-15T18:13:18;31.00;;;15.00;;
72590;SDS011;60625;51.212;5.952;2023-02-15T18:18:19;34.70;;;16.40;;
72590;SDS011;60625;51.212;5.952;2023-02-15T18:23:19;35.10;;;17.00;;
72590;SDS011;60625;51.212;5.952;2023-02-15T18:28:20;30.40;;;14.90;;
72590;SDS011;60625;51.212;5.952;2023-02-15T18:33:41;33.60;;;14.80;;
72590;SDS011;60625;51.212;5.952;2023-02-15T18:38:44;40.50;;;18.60;;
72590;SDS011;60625;51.212;5.952;2023-02-15T18:43:46;38.60;;;18.00;;
72590;SDS011;60625;51.212;5.952;2023-02-15T18:48:48;38.90;;;17.20;;
72590;SDS011;60625;51.212;5.952;2023-02-15T18:53:50;37.10;;;17.90;;
72590;SDS011;60625;51.212;5.952;2023-02-15T18:58:52;38.30;;;16.80;;
72590;SDS011;60625;51.212;5.952;2023-02-15T19:03:53;34.50;;;16.60;;
72590;SDS011;60625;51.212;5.952;2023-02-15T19:08:53;32.70;;;16.60;;
72590;SDS011;60625;51.212;5.952;2023-02-15T19:13:54;33.10;;;17.00;;
72590;SDS011;60625;51.212;5.952;2023-02-15T19:18:54;37.40;;;17.00;;
72590;SDS011;60625;51.212;5.952;2023-02-15T19:24:00;33.10;;;16.80;;
72590;SDS011;60625;51.212;5.952;2023-02-15T19:29:03;37.90;;;18.70;;
72590;SDS011;60625;51.212;5.952;2023-02-15T19:34:15;40.10;;;19.10;;
72590;SDS011;60625;51.212;5.952;2023-02-15T19:44:28;37.80;;;18.10;;
72590;SDS011;60625;51.212;5.952;2023-02-15T19:49:29;35.40;;;17.60;;
72590;SDS011;60625;51.212;5.952;2023-02-15T19:54:32;39.90;;;19.00;;
72590;SDS011;60625;51.212;5.952;2023-02-15T19:59:33;37.80;;;18.60;;
72590;SDS011;60625;51.212;5.952;2023-02-15T20:04:34;39.90;;;20.50;;
72590;SDS011;60625;51.212;5.952;2023-02-15T20:09:34;41.90;;;19.90;;
72590;SDS011;60625;51.212;5.952;2023-02-15T20:14:37;39.30;;;19.20;;
72590;SDS011;60625;51.212;5.952;2023-02-15T20:19:37;41.60;;;21.40;;
72590;SDS011;60625;51.212;5.952;2023-02-15T20:24:39;51.70;;;23.20;;
72590;SDS011;60625;51.212;5.952;2023-02-15T20:29:40;46.40;;;22.20;;
72590;SDS011;60625;51.212;5.952;2023-02-15T20:34:40;46.40;;;20.40;;
72590;SDS011;60625;51.212;5.952;2023-02-15T20:39:41;36.80;;;18.90;;
72590;SDS011;60625;51.212;5.952;2023-02-15T20:44:43;40.10;;;18.90;;
72590;SDS011;60625;51.212;5.952;2023-02-15T20:49:43;38.30;;;19.30;;
72590;SDS011;60625;51.212;5.952;2023-02-15T20:54:44;62.50;;;28.20;;
72590;SDS011;60625;51.212;5.952;2023-02-15T20:59:44;49.70;;;24.30;;
72590;SDS011;60625;51.212;5.952;2023-02-15T21:04:45;43.80;;;20.80;;
72590;SDS011;60625;51.212;5.952;2023-02-15T21:09:46;44.70;;;22.50;;
72590;SDS011;60625;51.212;5.952;2023-02-15T21:14:47;43.10;;;20.80;;
72590;SDS011;60625;51.212;5.952;2023-02-15T21:19:48;44.10;;;21.70;;
72590;SDS011;60625;51.212;5.952;2023-02-15T21:24:50;41.50;;;22.90;;
72590;SDS011;60625;51.212;5.952;2023-02-15T21:29:51;40.70;;;20.40;;
72590;SDS011;60625;51.212;5.952;2023-02-15T21:34:51;42.50;;;20.60;;
72590;SDS011;60625;51.212;5.952;2023-02-15T21:39:52;38.10;;;19.30;;
72590;SDS011;60625;51.212;5.952;2023-02-15T21:44:52;43.70;;;20.90;;
72590;SDS011;60625;51.212;5.952;2023-02-15T21:50:22;41.70;;;19.10;;
72590;SDS011;60625;51.212;5.952;2023-02-15T21:55:42;40.90;;;20.80;;
72590;SDS011;60625;51.212;5.952;2023-02-15T22:00:42;40.40;;;20.40;;
72590;SDS011;60625;51.212;5.952;2023-02-15T22:05:43;37.20;;;18.80;;
72590;SDS011;60625;51.212;5.952;2023-02-15T22:10:43;45.90;;;21.20;;
72590;SDS011;60625;51.212;5.952;2023-02-15T22:15:44;43.30;;;21.10;;
72590;SDS011;60625;51.212;5.952;2023-02-15T22:20:49;37.30;;;20.30;;
72590;SDS011;60625;51.212;5.952;2023-02-15T22:26:01;40.50;;;18.80;;
72590;SDS011;60625;51.212;5.952;2023-02-15T22:31:14;47.80;;;20.70;;
72590;SDS011;60625;51.212;5.952;2023-02-15T22:41:25;39.90;;;20.30;;
72590;SDS011;60625;51.212;5.952;2023-02-15T22:46:28;40.70;;;20.40;;
72590;SDS011;60625;51.212;5.952;2023-02-15T22:51:29;42.30;;;20.40;;
72590;SDS011;60625;51.212;5.952;2023-02-15T22:56:36;43.70;;;20.10;;
72590;SDS011;60625;51.212;5.952;2023-02-15T23:01:39;43.90;;;20.30;;
72590;SDS011;60625;51.212;5.952;2023-02-15T23:06:40;39.90;;;19.50;;
72590;SDS011;60625;51.212;5.952;2023-02-15T23:11:41;39.90;;;21.00;;
72590;SDS011;60625;51.212;5.952;2023-02-15T23:16:42;46.00;;;20.90;;
72590;SDS011;60625;51.212;5.952;2023-02-15T23:21:43;40.80;;;19.20;;
72590;SDS011;60625;51.212;5.952;2023-02-15T23:26:44;41.40;;;20.30;;
72590;SDS011;60625;51.212;5.952;2023-02-15T23:31:48;38.30;;;19.80;;
72590;SDS011;60625;51.212;5.952;2023-02-15T23:36:50;34.90;;;18.70;;
72590;SDS011;60625;51.212;5.952;2023-02-15T23:41:51;36.90;;;19.30;;
72590;SDS011;60625;51.212;5.952;2023-02-15T23:46:52;43.30;;;18.20;;
72590;SDS011;60625;51.212;5.952;2023-02-15T23:51:55;39.50;;;19.60;;
72590;SDS011;60625;51.212;5.952;2023-02-15T23:56:59;36.30;;;18.60;;
